sensor_id;sensor_type;location;lat;lon;timestamp;P1;durP1;ratioP1;P2;durP2;ratioP2
809;SDS011;387;48.772;9.186;2023-05-29T00:02:06;9.77;;;5.17;;
809;SDS011;387;48.772;9.186;2023-05-29T00:04:31;11.93;;;5.20;;
809;SDS011;387;48.772;9.186;2023-05-29T00:06:57;9.67;;;5.53;;
809;SDS011;387;48.772;9.186;2023-05-29T00:09:23;10.23;;;5.33;;
809;SDS011;387;48.772;9.186;2023-05-29T00:11:49;9.30;;;4.97;;
809;SDS011;387;48.772;9.186;2023-05-29T00:14:15;8.60;;;4.87;;
809;SDS011;387;48.772;9.186;2023-05-29T00:16:44;10.30;;;5.40;;
809;SDS011;387;48.772;9.186;2023-05-29T00:19:11;12.37;;;5.60;;
809;SDS011;387;48.772;9.186;2023-05-29T00:21:38;13.60;;;6.10;;
809;SDS011;387;48.772;9.186;2023-05-29T00:24:03;10.23;;;5.40;;
809;SDS011;387;48.772;9.186;2023-05-29T00:26:29;10.30;;;5.30;;
809;SDS011;387;48.772;9.186;2023-05-29T00:28:55;10.47;;;4.87;;
809;SDS011;387;48.772;9.186;2023-05-29T00:31:21;14.83;;;4.87;;
809;SDS011;387;48.772;9.186;2023-05-29T00:33:46;9.90;;;4.67;;
809;SDS011;387;48.772;9.186;2023-05-29T00:36:12;9.60;;;4.60;;
809;SDS011;387;48.772;9.186;2023-05-29T00:38:37;8.57;;;4.80;;
809;SDS011;387;48.772;9.186;2023-05-29T00:41:03;8.77;;;5.30;;
809;SDS011;387;48.772;9.186;2023-05-29T00:43:29;8.33;;;5.40;;
809;SDS011;387;48.772;9.186;2023-05-29T00:45:55;12.40;;;5.70;;
809;SDS011;387;48.772;9.186;2023-05-29T00:48:21;9.37;;;5.67;;
809;SDS011;387;48.772;9.186;2023-05-29T00:50:47;11.40;;;5.30;;
809;SDS011;387;48.772;9.186;2023-05-29T00:53:13;12.70;;;5.63;;
809;SDS011;387;48.772;9.186;2023-05-29T00:55:39;9.60;;;5.93;;
809;SDS011;387;48.772;9.186;2023-05-29T00:58:05;11.57;;;5.53;;
809;SDS011;387;48.772;9.186;2023-05-29T01:00:31;12.13;;;5.37;;
809;SDS011;387;48.772;9.186;2023-05-29T01:02:58;10.67;;;5.70;;
809;SDS011;387;48.772;9.186;2023-05-29T01:05:23;9.87;;;5.97;;
809;SDS011;387;48.772;9.186;2023-05-29T01:07:49;11.90;;;5.57;;
809;SDS011;387;48.772;9.186;2023-05-29T01:10:15;12.43;;;6.00;;
809;SDS011;387;48.772;9.186;2023-05-29T01:16:17;10.00;;;5.60;;
809;SDS011;387;48.772;9.186;2023-05-29T01:21:06;10.73;;;5.87;;
809;SDS011;387;48.772;9.186;2023-05-29T01:29:01;17.50;;;6.30;;
809;SDS011;387;48.772;9.186;2023-05-29T01:31:31;13.00;;;6.20;;
809;SDS011;387;48.772;9.186;2023-05-29T01:33:59;11.40;;;6.47;;
809;SDS011;387;48.772;9.186;2023-05-29T01:36:25;11.87;;;5.83;;
809;SDS011;387;48.772;9.186;2023-05-29T01:38:52;14.93;;;6.50;;
809;SDS011;387;48.772;9.186;2023-05-29T01:41:19;9.40;;;5.63;;
809;SDS011;387;48.772;9.186;2023-05-29T01:43:46;11.70;;;6.07;;
809;SDS011;387;48.772;9.186;2023-05-29T01:46:13;11.53;;;6.87;;
809;SDS011;387;48.772;9.186;2023-05-29T01:48:43;15.67;;;5.40;;
809;SDS011;387;48.772;9.186;2023-05-29T01:51:10;12.00;;;6.03;;
809;SDS011;387;48.772;9.186;2023-05-29T01:53:37;14.40;;;6.43;;
809;SDS011;387;48.772;9.186;2023-05-29T01:56:06;10.57;;;5.70;;
809;SDS011;387;48.772;9.186;2023-05-29T01:58:33;11.07;;;5.57;;
809;SDS011;387;48.772;9.186;2023-05-29T02:01:01;11.37;;;5.77;;
809;SDS011;387;48.772;9.186;2023-05-29T02:03:31;10.53;;;5.40;;
809;SDS011;387;48.772;9.186;2023-05-29T02:05:57;17.10;;;6.87;;
809;SDS011;387;48.772;9.186;2023-05-29T02:08:24;12.20;;;5.97;;
809;SDS011;387;48.772;9.186;2023-05-29T02:10:49;22.13;;;6.90;;
809;SDS011;387;48.772;9.186;2023-05-29T02:13:15;15.73;;;6.33;;
809;SDS011;387;48.772;9.186;2023-05-29T02:15:41;9.67;;;5.67;;
809;SDS011;387;48.772;9.186;2023-05-29T02:18:09;9.33;;;5.03;;
809;SDS011;387;48.772;9.186;2023-05-29T02:20:39;10.73;;;6.60;;
809;SDS011;387;48.772;9.186;2023-05-29T02:23:05;13.60;;;5.90;;
809;SDS011;387;48.772;9.186;2023-05-29T02:25:33;11.10;;;5.50;;
809;SDS011;387;48.772;9.186;2023-05-29T02:27:59;11.47;;;5.50;;
809;SDS011;387;48.772;9.186;2023-05-29T02:30:24;14.00;;;6.00;;
809;SDS011;387;48.772;9.186;2023-05-29T02:32:50;11.70;;;5.53;;
809;SDS011;387;48.772;9.186;2023-05-29T02:35:16;8.37;;;4.97;;
809;SDS011;387;48.772;9.186;2023-05-29T02:37:43;15.60;;;5.40;;
809;SDS011;387;48.772;9.186;2023-05-29T02:40:08;10.90;;;5.50;;
809;SDS011;387;48.772;9.186;2023-05-29T02:42:34;9.90;;;5.77;;
809;SDS011;387;48.772;9.186;2023-05-29T02:45:00;11.27;;;5.50;;
809;SDS011;387;48.772;9.186;2023-05-29T02:47:26;10.97;;;6.40;;
809;SDS011;387;48.772;9.186;2023-05-29T02:49:52;16.90;;;6.63;;
809;SDS011;387;48.772;9.186;2023-05-29T02:52:17;9.30;;;5.13;;
809;SDS011;387;48.772;9.186;2023-05-29T02:54:43;10.20;;;5.50;;
809;SDS011;387;48.772;9.186;2023-05-29T02:57:08;8.83;;;5.50;;
809;SDS011;387;48.772;9.186;2023-05-29T02:59:34;10.37;;;5.70;;
809;SDS011;387;48.772;9.186;2023-05-29T03:02:00;9.00;;;5.63;;
809;SDS011;387;48.772;9.186;2023-05-29T03:04:26;9.43;;;6.20;;
809;SDS011;387;48.772;9.186;2023-05-29T03:06:52;9.40;;;5.47;;
809;SDS011;387;48.772;9.186;2023-05-29T03:09:18;12.63;;;6.43;;
809;SDS011;387;48.772;9.186;2023-05-29T03:11:44;13.50;;;6.23;;
809;SDS011;387;48.772;9.186;2023-05-29T03:14:12;11.07;;;4.90;;
809;SDS011;387;48.772;9.186;2023-05-29T03:16:38;11.83;;;6.30;;
809;SDS011;387;48.772;9.186;2023-05-29T03:19:05;8.90;;;5.57;;
809;SDS011;387;48.772;9.186;2023-05-29T03:21:32;11.37;;;6.00;;
809;SDS011;387;48.772;9.186;2023-05-29T03:23:58;8.87;;;5.97;;
809;SDS011;387;48.772;9.186;2023-05-29T03:26:23;11.63;;;5.90;;
809;SDS011;387;48.772;9.186;2023-05-29T03:28:50;8.93;;;5.13;;
809;SDS011;387;48.772;9.186;2023-05-29T03:31:16;11.73;;;5.17;;
809;SDS011;387;48.772;9.186;2023-05-29T03:33:42;11.50;;;5.30;;
809;SDS011;387;48.772;9.186;2023-05-29T03:36:07;14.63;;;6.10;;
809;SDS011;387;48.772;9.186;2023-05-29T03:38:33;10.03;;;6.07;;
809;SDS011;387;48.772;9.186;2023-05-29T03:40:58;10.47;;;5.40;;
809;SDS011;387;48.772;9.186;2023-05-29T03:43:24;9.93;;;5.63;;
809;SDS011;387;48.772;9.186;2023-05-29T03:45:50;11.17;;;6.20;;
809;SDS011;387;48.772;9.186;2023-05-29T03:48:16;13.37;;;5.60;;
809;SDS011;387;48.772;9.186;2023-05-29T03:50:41;8.50;;;5.30;;
809;SDS011;387;48.772;9.186;2023-05-29T03:53:07;12.87;;;6.03;;
809;SDS011;387;48.772;9.186;2023-05-29T03:55:32;9.63;;;5.67;;
809;SDS011;387;48.772;9.186;2023-05-29T03:57:58;11.20;;;6.10;;
809;SDS011;387;48.772;9.186;2023-05-29T04:00:23;9.30;;;5.43;;
809;SDS011;387;48.772;9.186;2023-05-29T04:02:49;10.60;;;5.23;;
809;SDS011;387;48.772;9.186;2023-05-29T04:05:14;11.53;;;6.10;;
809;SDS011;387;48.772;9.186;2023-05-29T04:07:41;8.50;;;4.80;;
809;SDS011;387;48.772;9.186;2023-05-29T04:10:07;13.50;;;6.50;;
809;SDS011;387;48.772;9.186;2023-05-29T04:12:33;10.00;;;4.90;;
809;SDS011;387;48.772;9.186;2023-05-29T04:14:58;11.33;;;5.57;;
809;SDS011;387;48.772;9.186;2023-05-29T04:17:24;9.50;;;5.23;;
809;SDS011;387;48.772;9.186;2023-05-29T04:19:50;11.80;;;5.50;;
809;SDS011;387;48.772;9.186;2023-05-29T04:22:16;13.27;;;6.63;;
809;SDS011;387;48.772;9.186;2023-05-29T04:24:41;9.03;;;5.33;;
809;SDS011;387;48.772;9.186;2023-05-29T04:27:07;9.50;;;5.40;;
809;SDS011;387;48.772;9.186;2023-05-29T04:29:34;10.50;;;5.47;;
809;SDS011;387;48.772;9.186;2023-05-29T04:32:00;11.03;;;5.67;;
809;SDS011;387;48.772;9.186;2023-05-29T04:34:28;8.93;;;4.70;;
809;SDS011;387;48.772;9.186;2023-05-29T04:36:55;9.33;;;4.97;;
809;SDS011;387;48.772;9.186;2023-05-29T04:39:23;9.13;;;5.30;;
809;SDS011;387;48.772;9.186;2023-05-29T04:41:49;10.20;;;5.60;;
809;SDS011;387;48.772;9.186;2023-05-29T04:44:16;12.10;;;5.90;;
809;SDS011;387;48.772;9.186;2023-05-29T04:46:42;13.97;;;5.80;;
809;SDS011;387;48.772;9.186;2023-05-29T04:49:09;12.07;;;5.37;;
809;SDS011;387;48.772;9.186;2023-05-29T04:51:35;15.30;;;5.97;;
809;SDS011;387;48.772;9.186;2023-05-29T04:54:01;13.50;;;5.57;;
809;SDS011;387;48.772;9.186;2023-05-29T04:56:27;11.03;;;6.43;;
809;SDS011;387;48.772;9.186;2023-05-29T04:58:53;12.23;;;5.70;;
809;SDS011;387;48.772;9.186;2023-05-29T05:01:19;12.23;;;5.63;;
809;SDS011;387;48.772;9.186;2023-05-29T05:03:45;13.60;;;6.20;;
809;SDS011;387;48.772;9.186;2023-05-29T05:06:11;11.93;;;5.90;;
809;SDS011;387;48.772;9.186;2023-05-29T05:08:37;12.80;;;6.10;;
809;SDS011;387;48.772;9.186;2023-05-29T05:11:03;12.10;;;5.30;;
809;SDS011;387;48.772;9.186;2023-05-29T05:13:31;11.70;;;6.00;;
809;SDS011;387;48.772;9.186;2023-05-29T05:15:56;9.77;;;5.43;;
809;SDS011;387;48.772;9.186;2023-05-29T05:18:22;13.93;;;6.70;;
809;SDS011;387;48.772;9.186;2023-05-29T05:20:48;12.00;;;6.33;;
809;SDS011;387;48.772;9.186;2023-05-29T05:23:13;12.20;;;5.97;;
809;SDS011;387;48.772;9.186;2023-05-29T05:25:39;9.07;;;5.30;;
809;SDS011;387;48.772;9.186;2023-05-29T05:28:05;10.33;;;6.40;;
809;SDS011;387;48.772;9.186;2023-05-29T05:30:30;17.27;;;6.67;;
809;SDS011;387;48.772;9.186;2023-05-29T05:32:57;14.10;;;5.70;;
809;SDS011;387;48.772;9.186;2023-05-29T05:35:23;10.60;;;5.90;;
809;SDS011;387;48.772;9.186;2023-05-29T05:37:49;13.80;;;6.27;;
809;SDS011;387;48.772;9.186;2023-05-29T05:40:15;10.43;;;6.03;;
809;SDS011;387;48.772;9.186;2023-05-29T05:42:40;15.50;;;6.67;;
809;SDS011;387;48.772;9.186;2023-05-29T05:45:06;15.33;;;6.33;;
809;SDS011;387;48.772;9.186;2023-05-29T05:47:32;13.43;;;6.10;;
809;SDS011;387;48.772;9.186;2023-05-29T05:49:58;8.37;;;5.00;;
809;SDS011;387;48.772;9.186;2023-05-29T05:52:24;9.27;;;4.97;;
809;SDS011;387;48.772;9.186;2023-05-29T05:54:50;11.57;;;5.60;;
809;SDS011;387;48.772;9.186;2023-05-29T05:57:16;12.33;;;6.17;;
809;SDS011;387;48.772;9.186;2023-05-29T05:59:42;12.80;;;5.50;;
809;SDS011;387;48.772;9.186;2023-05-29T06:02:08;7.77;;;4.70;;
809;SDS011;387;48.772;9.186;2023-05-29T06:04:33;10.80;;;6.40;;
809;SDS011;387;48.772;9.186;2023-05-29T06:06:59;9.57;;;5.83;;
809;SDS011;387;48.772;9.186;2023-05-29T06:09:25;14.00;;;6.43;;
809;SDS011;387;48.772;9.186;2023-05-29T06:11:50;14.70;;;6.03;;
809;SDS011;387;48.772;9.186;2023-05-29T06:14:16;12.00;;;5.97;;
809;SDS011;387;48.772;9.186;2023-05-29T06:16:42;10.53;;;6.13;;
809;SDS011;387;48.772;9.186;2023-05-29T06:19:08;10.90;;;5.40;;
809;SDS011;387;48.772;9.186;2023-05-29T06:21:33;22.17;;;10.60;;
809;SDS011;387;48.772;9.186;2023-05-29T06:23:59;31.53;;;17.10;;
809;SDS011;387;48.772;9.186;2023-05-29T06:26:25;16.30;;;8.30;;
809;SDS011;387;48.772;9.186;2023-05-29T06:28:51;18.00;;;8.83;;
809;SDS011;387;48.772;9.186;2023-05-29T06:31:17;21.03;;;7.43;;
809;SDS011;387;48.772;9.186;2023-05-29T06:33:43;11.97;;;6.37;;
809;SDS011;387;48.772;9.186;2023-05-29T06:36:09;11.30;;;5.57;;
809;SDS011;387;48.772;9.186;2023-05-29T06:38:35;14.90;;;7.30;;
809;SDS011;387;48.772;9.186;2023-05-29T06:41:01;12.40;;;6.50;;
809;SDS011;387;48.772;9.186;2023-05-29T06:43:27;17.30;;;7.00;;
809;SDS011;387;48.772;9.186;2023-05-29T06:45:53;17.60;;;5.70;;
809;SDS011;387;48.772;9.186;2023-05-29T06:48:19;10.30;;;6.00;;
809;SDS011;387;48.772;9.186;2023-05-29T06:50:45;14.17;;;6.17;;
809;SDS011;387;48.772;9.186;2023-05-29T06:53:12;12.57;;;6.50;;
809;SDS011;387;48.772;9.186;2023-05-29T06:55:38;9.30;;;5.57;;
809;SDS011;387;48.772;9.186;2023-05-29T06:58:05;10.40;;;6.07;;
809;SDS011;387;48.772;9.186;2023-05-29T07:00:31;22.60;;;12.23;;
809;SDS011;387;48.772;9.186;2023-05-29T07:02:57;27.60;;;14.07;;
809;SDS011;387;48.772;9.186;2023-05-29T07:05:22;13.40;;;6.20;;
809;SDS011;387;48.772;9.186;2023-05-29T07:07:48;11.20;;;5.47;;
809;SDS011;387;48.772;9.186;2023-05-29T07:10:13;10.87;;;6.20;;
809;SDS011;387;48.772;9.186;2023-05-29T07:12:39;12.50;;;5.63;;
809;SDS011;387;48.772;9.186;2023-05-29T07:15:05;13.17;;;6.03;;
809;SDS011;387;48.772;9.186;2023-05-29T07:17:31;12.10;;;5.50;;
809;SDS011;387;48.772;9.186;2023-05-29T07:19:56;9.70;;;5.77;;
809;SDS011;387;48.772;9.186;2023-05-29T07:22:22;10.20;;;5.90;;
809;SDS011;387;48.772;9.186;2023-05-29T07:24:47;11.47;;;6.20;;
809;SDS011;387;48.772;9.186;2023-05-29T07:27:13;13.60;;;7.00;;
809;SDS011;387;48.772;9.186;2023-05-29T07:29:38;12.10;;;7.10;;
809;SDS011;387;48.772;9.186;2023-05-29T07:32:04;11.87;;;6.70;;
809;SDS011;387;48.772;9.186;2023-05-29T07:34:30;13.37;;;6.00;;
809;SDS011;387;48.772;9.186;2023-05-29T07:37:03;11.50;;;5.50;;
809;SDS011;387;48.772;9.186;2023-05-29T07:39:30;9.03;;;5.53;;
809;SDS011;387;48.772;9.186;2023-05-29T07:41:56;10.23;;;6.00;;
809;SDS011;387;48.772;9.186;2023-05-29T07:44:22;11.77;;;5.07;;
809;SDS011;387;48.772;9.186;2023-05-29T07:46:48;11.17;;;5.93;;
809;SDS011;387;48.772;9.186;2023-05-29T07:49:13;12.17;;;6.00;;
809;SDS011;387;48.772;9.186;2023-05-29T07:51:39;10.07;;;5.80;;
809;SDS011;387;48.772;9.186;2023-05-29T07:54:05;11.73;;;5.50;;
809;SDS011;387;48.772;9.186;2023-05-29T07:56:31;11.40;;;6.20;;
809;SDS011;387;48.772;9.186;2023-05-29T07:58:58;12.23;;;6.37;;
809;SDS011;387;48.772;9.186;2023-05-29T08:01:25;9.97;;;5.70;;
809;SDS011;387;48.772;9.186;2023-05-29T08:03:51;12.73;;;5.67;;
809;SDS011;387;48.772;9.186;2023-05-29T08:06:17;10.37;;;6.30;;
809;SDS011;387;48.772;9.186;2023-05-29T08:08:43;9.13;;;5.70;;
809;SDS011;387;48.772;9.186;2023-05-29T08:11:09;16.60;;;7.20;;
809;SDS011;387;48.772;9.186;2023-05-29T08:13:35;14.73;;;6.97;;
809;SDS011;387;48.772;9.186;2023-05-29T08:16:02;12.40;;;6.40;;
809;SDS011;387;48.772;9.186;2023-05-29T08:18:30;15.00;;;6.67;;
809;SDS011;387;48.772;9.186;2023-05-29T08:20:56;11.77;;;6.60;;
809;SDS011;387;48.772;9.186;2023-05-29T08:23:22;11.27;;;5.20;;
809;SDS011;387;48.772;9.186;2023-05-29T08:25:48;9.73;;;5.67;;
809;SDS011;387;48.772;9.186;2023-05-29T08:28:14;10.20;;;5.13;;
809;SDS011;387;48.772;9.186;2023-05-29T08:30:40;12.70;;;5.50;;
809;SDS011;387;48.772;9.186;2023-05-29T08:33:06;12.90;;;6.00;;
809;SDS011;387;48.772;9.186;2023-05-29T08:35:32;12.00;;;5.67;;
809;SDS011;387;48.772;9.186;2023-05-29T08:37:58;7.60;;;5.13;;
809;SDS011;387;48.772;9.186;2023-05-29T08:40:24;11.00;;;6.10;;
809;SDS011;387;48.772;9.186;2023-05-29T08:43:12;11.00;;;5.43;;
809;SDS011;387;48.772;9.186;2023-05-29T08:45:39;9.00;;;5.77;;
809;SDS011;387;48.772;9.186;2023-05-29T08:48:10;15.60;;;6.47;;
809;SDS011;387;48.772;9.186;2023-05-29T08:50:45;9.60;;;5.47;;
809;SDS011;387;48.772;9.186;2023-05-29T08:53:12;12.30;;;6.90;;
809;SDS011;387;48.772;9.186;2023-05-29T08:55:38;11.03;;;5.70;;
809;SDS011;387;48.772;9.186;2023-05-29T08:58:04;10.97;;;5.57;;
809;SDS011;387;48.772;9.186;2023-05-29T09:00:30;10.50;;;5.67;;
809;SDS011;387;48.772;9.186;2023-05-29T09:02:57;10.20;;;5.90;;
809;SDS011;387;48.772;9.186;2023-05-29T09:05:24;10.90;;;5.80;;
809;SDS011;387;48.772;9.186;2023-05-29T09:07:51;11.13;;;6.10;;
809;SDS011;387;48.772;9.186;2023-05-29T09:10:21;12.80;;;6.10;;
809;SDS011;387;48.772;9.186;2023-05-29T09:12:47;10.23;;;5.60;;
809;SDS011;387;48.772;9.186;2023-05-29T09:15:22;12.00;;;5.33;;
809;SDS011;387;48.772;9.186;2023-05-29T09:17:49;11.80;;;5.70;;
809;SDS011;387;48.772;9.186;2023-05-29T09:20:17;12.70;;;6.07;;
809;SDS011;387;48.772;9.186;2023-05-29T09:22:52;8.27;;;5.17;;
809;SDS011;387;48.772;9.186;2023-05-29T09:25:25;9.33;;;5.57;;
809;SDS011;387;48.772;9.186;2023-05-29T09:27:56;9.00;;;5.53;;
809;SDS011;387;48.772;9.186;2023-05-29T09:33:08;6.97;;;5.40;;
809;SDS011;387;48.772;9.186;2023-05-29T09:38:05;9.43;;;4.80;;
809;SDS011;387;48.772;9.186;2023-05-29T09:40:32;12.17;;;6.00;;
809;SDS011;387;48.772;9.186;2023-05-29T09:43:10;7.90;;;5.53;;
809;SDS011;387;48.772;9.186;2023-05-29T09:45:40;6.77;;;5.00;;
809;SDS011;387;48.772;9.186;2023-05-29T09:48:07;13.30;;;6.57;;
809;SDS011;387;48.772;9.186;2023-05-29T09:50:36;9.17;;;5.53;;
809;SDS011;387;48.772;9.186;2023-05-29T09:53:02;13.20;;;5.60;;
809;SDS011;387;48.772;9.186;2023-05-29T09:55:28;9.90;;;5.53;;
809;SDS011;387;48.772;9.186;2023-05-29T09:57:57;13.90;;;5.70;;
809;SDS011;387;48.772;9.186;2023-05-29T10:00:24;12.27;;;6.40;;
809;SDS011;387;48.772;9.186;2023-05-29T10:02:50;9.17;;;5.60;;
809;SDS011;387;48.772;9.186;2023-05-29T10:05:16;11.60;;;5.67;;
809;SDS011;387;48.772;9.186;2023-05-29T10:07:46;11.07;;;6.27;;
809;SDS011;387;48.772;9.186;2023-05-29T10:10:14;9.50;;;5.60;;
809;SDS011;387;48.772;9.186;2023-05-29T10:12:48;11.10;;;6.07;;
809;SDS011;387;48.772;9.186;2023-05-29T10:15:15;8.00;;;4.90;;
809;SDS011;387;48.772;9.186;2023-05-29T10:18:00;9.60;;;4.90;;
809;SDS011;387;48.772;9.186;2023-05-29T10:20:29;6.77;;;4.90;;
809;SDS011;387;48.772;9.186;2023-05-29T10:22:56;9.20;;;4.90;;
809;SDS011;387;48.772;9.186;2023-05-29T10:25:25;10.93;;;5.87;;
809;SDS011;387;48.772;9.186;2023-05-29T10:27:55;11.23;;;6.27;;
809;SDS011;387;48.772;9.186;2023-05-29T10:35:48;7.83;;;5.30;;
809;SDS011;387;48.772;9.186;2023-05-29T10:38:28;7.57;;;4.93;;
809;SDS011;387;48.772;9.186;2023-05-29T10:40:53;8.83;;;4.53;;
809;SDS011;387;48.772;9.186;2023-05-29T10:43:32;8.57;;;5.53;;
809;SDS011;387;48.772;9.186;2023-05-29T10:46:02;9.43;;;5.37;;
809;SDS011;387;48.772;9.186;2023-05-29T10:48:38;11.17;;;5.20;;
809;SDS011;387;48.772;9.186;2023-05-29T10:51:06;9.50;;;5.00;;
809;SDS011;387;48.772;9.186;2023-05-29T10:53:33;11.67;;;4.63;;
809;SDS011;387;48.772;9.186;2023-05-29T10:55:59;8.80;;;4.90;;
809;SDS011;387;48.772;9.186;2023-05-29T10:58:26;8.90;;;4.33;;
809;SDS011;387;48.772;9.186;2023-05-29T11:00:52;10.83;;;4.70;;
809;SDS011;387;48.772;9.186;2023-05-29T11:03:20;7.97;;;4.83;;
809;SDS011;387;48.772;9.186;2023-05-29T11:05:59;7.67;;;4.47;;
809;SDS011;387;48.772;9.186;2023-05-29T11:10:59;8.10;;;4.50;;
809;SDS011;387;48.772;9.186;2023-05-29T11:13:26;11.70;;;5.03;;
809;SDS011;387;48.772;9.186;2023-05-29T11:18:43;12.63;;;5.30;;
809;SDS011;387;48.772;9.186;2023-05-29T11:21:15;8.60;;;4.80;;
809;SDS011;387;48.772;9.186;2023-05-29T11:23:51;9.43;;;4.23;;
809;SDS011;387;48.772;9.186;2023-05-29T11:26:21;9.87;;;5.33;;
809;SDS011;387;48.772;9.186;2023-05-29T11:28:48;10.57;;;5.07;;
809;SDS011;387;48.772;9.186;2023-05-29T11:31:14;10.20;;;4.90;;
809;SDS011;387;48.772;9.186;2023-05-29T11:33:42;11.00;;;4.43;;
809;SDS011;387;48.772;9.186;2023-05-29T11:36:17;6.60;;;4.10;;
809;SDS011;387;48.772;9.186;2023-05-29T11:38:45;6.63;;;4.70;;
809;SDS011;387;48.772;9.186;2023-05-29T11:41:11;5.87;;;4.50;;
809;SDS011;387;48.772;9.186;2023-05-29T11:43:36;8.43;;;4.77;;
809;SDS011;387;48.772;9.186;2023-05-29T11:46:02;9.57;;;5.07;;
809;SDS011;387;48.772;9.186;2023-05-29T11:48:44;9.67;;;4.50;;
809;SDS011;387;48.772;9.186;2023-05-29T11:51:10;6.50;;;3.97;;
809;SDS011;387;48.772;9.186;2023-05-29T11:53:39;9.40;;;4.10;;
809;SDS011;387;48.772;9.186;2023-05-29T11:56:07;6.83;;;4.00;;
809;SDS011;387;48.772;9.186;2023-05-29T11:58:35;8.00;;;4.10;;
809;SDS011;387;48.772;9.186;2023-05-29T12:01:05;9.47;;;4.60;;
809;SDS011;387;48.772;9.186;2023-05-29T12:03:39;8.63;;;4.47;;
809;SDS011;387;48.772;9.186;2023-05-29T12:06:06;7.80;;;4.60;;
809;SDS011;387;48.772;9.186;2023-05-29T12:08:33;8.97;;;4.80;;
809;SDS011;387;48.772;9.186;2023-05-29T12:11:00;7.73;;;4.33;;
809;SDS011;387;48.772;9.186;2023-05-29T12:13:25;8.60;;;4.03;;
809;SDS011;387;48.772;9.186;2023-05-29T12:15:52;7.37;;;4.27;;
809;SDS011;387;48.772;9.186;2023-05-29T12:18:19;7.80;;;3.90;;
809;SDS011;387;48.772;9.186;2023-05-29T12:20:45;5.43;;;3.50;;
809;SDS011;387;48.772;9.186;2023-05-29T12:23:11;8.93;;;3.80;;
809;SDS011;387;48.772;9.186;2023-05-29T12:25:37;5.13;;;3.80;;
809;SDS011;387;48.772;9.186;2023-05-29T12:28:03;8.13;;;4.20;;
809;SDS011;387;48.772;9.186;2023-05-29T12:30:29;8.30;;;4.53;;
809;SDS011;387;48.772;9.186;2023-05-29T12:32:54;10.63;;;4.60;;
809;SDS011;387;48.772;9.186;2023-05-29T12:35:24;7.60;;;4.53;;
809;SDS011;387;48.772;9.186;2023-05-29T12:40:24;6.67;;;4.10;;
809;SDS011;387;48.772;9.186;2023-05-29T12:43:01;8.50;;;3.93;;
809;SDS011;387;48.772;9.186;2023-05-29T12:45:29;9.80;;;4.10;;
809;SDS011;387;48.772;9.186;2023-05-29T12:50:48;7.80;;;4.47;;
809;SDS011;387;48.772;9.186;2023-05-29T12:53:15;7.50;;;3.97;;
809;SDS011;387;48.772;9.186;2023-05-29T12:55:41;8.03;;;3.60;;
809;SDS011;387;48.772;9.186;2023-05-29T12:58:14;11.17;;;4.70;;
809;SDS011;387;48.772;9.186;2023-05-29T13:00:44;7.50;;;4.20;;
809;SDS011;387;48.772;9.186;2023-05-29T13:03:12;9.00;;;4.20;;
809;SDS011;387;48.772;9.186;2023-05-29T13:05:39;10.07;;;4.80;;
809;SDS011;387;48.772;9.186;2023-05-29T13:08:05;9.60;;;4.50;;
809;SDS011;387;48.772;9.186;2023-05-29T13:10:32;5.77;;;3.80;;
809;SDS011;387;48.772;9.186;2023-05-29T13:12:59;7.20;;;4.73;;
809;SDS011;387;48.772;9.186;2023-05-29T13:15:25;13.53;;;4.80;;
809;SDS011;387;48.772;9.186;2023-05-29T13:17:54;7.60;;;4.33;;
809;SDS011;387;48.772;9.186;2023-05-29T13:20:19;7.10;;;4.00;;
809;SDS011;387;48.772;9.186;2023-05-29T13:22:46;8.87;;;4.37;;
809;SDS011;387;48.772;9.186;2023-05-29T13:25:13;9.27;;;4.23;;
809;SDS011;387;48.772;9.186;2023-05-29T13:27:43;8.53;;;4.50;;
809;SDS011;387;48.772;9.186;2023-05-29T13:30:10;7.77;;;4.30;;
809;SDS011;387;48.772;9.186;2023-05-29T13:32:37;9.40;;;4.27;;
809;SDS011;387;48.772;9.186;2023-05-29T13:35:03;10.30;;;4.40;;
809;SDS011;387;48.772;9.186;2023-05-29T13:37:29;6.63;;;3.97;;
809;SDS011;387;48.772;9.186;2023-05-29T13:39:54;7.43;;;4.27;;
809;SDS011;387;48.772;9.186;2023-05-29T13:42:20;6.60;;;4.30;;
809;SDS011;387;48.772;9.186;2023-05-29T13:44:46;11.00;;;3.90;;
809;SDS011;387;48.772;9.186;2023-05-29T13:47:13;9.63;;;5.30;;
809;SDS011;387;48.772;9.186;2023-05-29T13:49:39;10.40;;;4.50;;
809;SDS011;387;48.772;9.186;2023-05-29T13:52:05;8.20;;;4.60;;
809;SDS011;387;48.772;9.186;2023-05-29T13:54:31;5.83;;;4.13;;
809;SDS011;387;48.772;9.186;2023-05-29T13:57:00;7.20;;;4.23;;
809;SDS011;387;48.772;9.186;2023-05-29T13:59:30;8.73;;;4.37;;
809;SDS011;387;48.772;9.186;2023-05-29T14:01:56;6.07;;;4.17;;
809;SDS011;387;48.772;9.186;2023-05-29T14:04:22;9.10;;;4.83;;
809;SDS011;387;48.772;9.186;2023-05-29T14:06:47;6.97;;;4.10;;
809;SDS011;387;48.772;9.186;2023-05-29T14:09:13;9.53;;;4.30;;
809;SDS011;387;48.772;9.186;2023-05-29T14:11:39;6.30;;;4.20;;
809;SDS011;387;48.772;9.186;2023-05-29T14:14:05;6.87;;;4.10;;
809;SDS011;387;48.772;9.186;2023-05-29T14:16:31;11.20;;;4.57;;
809;SDS011;387;48.772;9.186;2023-05-29T14:18:58;9.97;;;3.50;;
809;SDS011;387;48.772;9.186;2023-05-29T14:21:24;7.73;;;4.30;;
809;SDS011;387;48.772;9.186;2023-05-29T14:23:49;4.70;;;3.27;;
809;SDS011;387;48.772;9.186;2023-05-29T14:26:15;8.90;;;4.60;;
809;SDS011;387;48.772;9.186;2023-05-29T14:28:40;7.63;;;3.73;;
809;SDS011;387;48.772;9.186;2023-05-29T14:31:06;5.77;;;4.00;;
809;SDS011;387;48.772;9.186;2023-05-29T14:33:32;6.03;;;4.23;;
809;SDS011;387;48.772;9.186;2023-05-29T14:35:58;6.67;;;3.87;;
809;SDS011;387;48.772;9.186;2023-05-29T14:38:24;7.60;;;4.63;;
809;SDS011;387;48.772;9.186;2023-05-29T14:40:50;7.40;;;4.70;;
809;SDS011;387;48.772;9.186;2023-05-29T14:43:16;7.43;;;4.00;;
809;SDS011;387;48.772;9.186;2023-05-29T14:45:42;7.63;;;4.13;;
809;SDS011;387;48.772;9.186;2023-05-29T14:48:08;6.53;;;4.10;;
809;SDS011;387;48.772;9.186;2023-05-29T14:50:35;8.83;;;4.30;;
809;SDS011;387;48.772;9.186;2023-05-29T14:53:00;9.70;;;4.50;;
809;SDS011;387;48.772;9.186;2023-05-29T14:55:26;6.40;;;4.20;;
809;SDS011;387;48.772;9.186;2023-05-29T14:57:51;6.53;;;4.33;;
809;SDS011;387;48.772;9.186;2023-05-29T15:00:17;7.80;;;4.53;;
809;SDS011;387;48.772;9.186;2023-05-29T15:02:43;10.83;;;4.50;;
809;SDS011;387;48.772;9.186;2023-05-29T15:05:09;7.63;;;4.30;;
809;SDS011;387;48.772;9.186;2023-05-29T15:07:35;8.80;;;4.37;;
809;SDS011;387;48.772;9.186;2023-05-29T15:10:00;8.03;;;4.40;;
809;SDS011;387;48.772;9.186;2023-05-29T15:12:26;6.00;;;4.10;;
809;SDS011;387;48.772;9.186;2023-05-29T15:14:52;9.10;;;3.87;;
809;SDS011;387;48.772;9.186;2023-05-29T15:17:18;5.40;;;3.57;;
809;SDS011;387;48.772;9.186;2023-05-29T15:19:43;9.57;;;4.03;;
809;SDS011;387;48.772;9.186;2023-05-29T15:22:09;6.70;;;4.43;;
809;SDS011;387;48.772;9.186;2023-05-29T15:24:35;8.07;;;4.80;;
809;SDS011;387;48.772;9.186;2023-05-29T15:27:00;9.77;;;4.53;;
809;SDS011;387;48.772;9.186;2023-05-29T15:29:31;10.10;;;4.70;;
809;SDS011;387;48.772;9.186;2023-05-29T15:31:58;8.40;;;5.20;;
809;SDS011;387;48.772;9.186;2023-05-29T15:34:24;7.50;;;4.33;;
809;SDS011;387;48.772;9.186;2023-05-29T15:36:49;7.53;;;4.30;;
809;SDS011;387;48.772;9.186;2023-05-29T15:39:15;7.97;;;4.20;;
809;SDS011;387;48.772;9.186;2023-05-29T15:41:41;7.50;;;4.83;;
809;SDS011;387;48.772;9.186;2023-05-29T15:44:06;9.43;;;4.50;;
809;SDS011;387;48.772;9.186;2023-05-29T15:46:32;9.97;;;4.63;;
809;SDS011;387;48.772;9.186;2023-05-29T15:48:57;5.50;;;3.73;;
809;SDS011;387;48.772;9.186;2023-05-29T15:51:23;5.87;;;3.90;;
809;SDS011;387;48.772;9.186;2023-05-29T15:53:49;8.23;;;4.07;;
809;SDS011;387;48.772;9.186;2023-05-29T15:56:15;7.33;;;4.67;;
809;SDS011;387;48.772;9.186;2023-05-29T15:58:40;6.80;;;4.23;;
809;SDS011;387;48.772;9.186;2023-05-29T16:01:06;5.00;;;3.80;;
809;SDS011;387;48.772;9.186;2023-05-29T16:03:31;6.83;;;4.20;;
809;SDS011;387;48.772;9.186;2023-05-29T16:05:57;9.60;;;4.70;;
809;SDS011;387;48.772;9.186;2023-05-29T16:08:25;8.23;;;3.90;;